createdAt,value
2017-11-17T00:00:07.554Z,1009.83
2017-11-17T00:01:07.616Z,1009.83
2017-11-17T00:02:07.525Z,1009.82
2017-11-17T00:03:07.627Z,1009.83
2017-11-17T00:04:07.454Z,1009.83
2017-11-17T00:05:07.537Z,1009.77
2017-11-17T00:06:07.398Z,1009.83
2017-11-17T00:07:07.547Z,1009.80
2017-11-17T00:08:07.348Z,1009.78
2017-11-17T00:09:07.457Z,1009.78
2017-11-17T00:10:07.309Z,1009.79
2017-11-17T00:11:07.373Z,1009.79
2017-11-17T00:12:07.254Z,1009.79
2017-11-17T00:13:07.230Z,1009.82
2017-11-17T00:14:07.206Z,1009.79
2017-11-17T00:15:07.287Z,1009.78
2017-11-17T00:16:07.157Z,1009.78
2017-11-17T00:17:07.202Z,1009.80
2017-11-17T00:18:07.114Z,1009.78
2017-11-17T00:19:07.080Z,1009.83
2017-11-17T00:20:07.221Z,1009.82
2017-11-17T00:21:07.026Z,1009.81
2017-11-17T00:22:07.133Z,1009.78
2017-11-17T00:23:06.982Z,1009.79
2017-11-17T00:24:07.044Z,1009.77
2017-11-17T00:25:06.926Z,1009.79
2017-11-17T00:26:07.053Z,1009.74
2017-11-17T00:27:06.878Z,1009.81
2017-11-17T00:28:06.968Z,1009.83
2017-11-17T00:29:06.833Z,1009.84
2017-11-17T00:30:06.870Z,1009.86
2017-11-17T00:31:06.782Z,1009.88
2017-11-17T00:32:06.887Z,1009.86
2017-11-17T00:33:06.734Z,1009.83
2017-11-17T00:34:06.713Z,1009.85
2017-11-17T00:35:06.799Z,1009.89
2017-11-17T00:36:06.655Z,1009.90
2017-11-17T00:37:06.710Z,1009.91
2017-11-17T00:38:06.612Z,1009.92
2017-11-17T00:39:06.587Z,1009.92
2017-11-17T00:40:06.562Z,1009.94
2017-11-17T00:41:06.628Z,1009.91
2017-11-17T00:42:06.518Z,1009.94
2017-11-17T00:43:06.538Z,1009.92
2017-11-17T00:44:06.457Z,1009.86
2017-11-17T00:45:06.554Z,1009.89
2017-11-17T00:46:06.423Z,1009.87
2017-11-17T00:47:06.461Z,1009.84
2017-11-17T00:48:06.467Z,1009.88
2017-11-17T00:49:06.336Z,1009.91
2017-11-17T00:50:06.379Z,1009.91
2017-11-17T00:51:06.288Z,1009.94
2017-11-17T00:52:06.393Z,1009.91
2017-11-17T00:53:06.236Z,1009.91
2017-11-17T00:54:06.301Z,1009.95
2017-11-17T00:55:06.176Z,1009.93
2017-11-17T00:56:06.211Z,1009.93
2017-11-17T00:57:06.133Z,1009.98
2017-11-17T00:58:06.220Z,1009.94
2017-11-17T00:59:06.081Z,1009.97
2017-11-17T01:00:06.141Z,1009.95
2017-11-17T01:01:06.033Z,1010.03
2017-11-17T01:02:06.149Z,1010.03
2017-11-17T01:03:05.981Z,1010.00
2017-11-17T01:04:06.052Z,1010.04
2017-11-17T01:05:05.937Z,1010.06
2017-11-17T01:06:05.973Z,1010.06
2017-11-17T01:07:05.881Z,1010.13
2017-11-17T01:08:05.855Z,1010.11
2017-11-17T01:09:05.889Z,1010.09
2017-11-17T01:10:05.806Z,1010.08
2017-11-17T01:11:05.894Z,1010.13
2017-11-17T01:12:05.750Z,1010.13
2017-11-17T01:13:05.805Z,1010.14
2017-11-17T01:14:05.705Z,1010.16
2017-11-17T01:15:05.716Z,1010.17
2017-11-17T01:16:05.662Z,1010.19
2017-11-17T01:17:05.631Z,1010.21
2017-11-17T01:18:05.737Z,1010.20
2017-11-17T01:19:05.573Z,1010.22
2017-11-17T01:20:05.643Z,1010.23
2017-11-17T01:21:05.532Z,1010.26
2017-11-17T01:22:05.505Z,1010.26
2017-11-17T01:23:05.485Z,1010.25
2017-11-17T01:24:05.568Z,1010.27
2017-11-17T01:25:05.424Z,1010.28
2017-11-17T01:26:05.471Z,1010.29
2017-11-17T01:27:05.375Z,1010.32
2017-11-17T01:28:05.384Z,1010.29
2017-11-17T01:29:05.320Z,1010.30
2017-11-17T01:30:05.393Z,1010.33
2017-11-17T01:31:05.274Z,1010.31
2017-11-17T01:32:05.305Z,1010.32
2017-11-17T01:33:05.227Z,1010.32
2017-11-17T01:34:05.315Z,1010.30
2017-11-17T01:35:05.180Z,1010.28
2017-11-17T01:36:05.327Z,1010.30
2017-11-17T01:37:05.335Z,1010.31
2017-11-17T01:38:05.098Z,1010.29
2017-11-17T01:39:05.248Z,1010.34
2017-11-17T01:40:05.046Z,1010.36
2017-11-17T01:41:05.153Z,1010.32
2017-11-17T01:42:04.999Z,1010.35
2017-11-17T01:43:05.169Z,1010.39
2017-11-17T01:44:04.952Z,1010.37
2017-11-17T01:45:05.074Z,1010.40
2017-11-17T01:46:04.904Z,1010.34
2017-11-17T01:47:04.986Z,1010.41
2017-11-17T01:48:04.854Z,1010.43
2017-11-17T01:49:04.998Z,1010.42
2017-11-17T01:50:04.797Z,1010.39
2017-11-17T01:51:04.768Z,1010.47
2017-11-17T01:52:04.748Z,1010.44
2017-11-17T01:53:04.921Z,1010.40
2017-11-17T01:54:04.696Z,1010.43
2017-11-17T01:55:04.840Z,1010.47
2017-11-17T01:56:04.645Z,1010.43
2017-11-17T01:57:04.744Z,1010.44
2017-11-17T01:58:04.592Z,1010.43
2017-11-17T01:59:04.650Z,1010.49
2017-11-17T02:00:04.569Z,1010.48
2017-11-17T02:01:04.527Z,1010.44
2017-11-17T02:02:04.564Z,1010.47
2017-11-17T02:03:04.476Z,1010.43
2017-11-17T02:04:04.480Z,1010.46
2017-11-17T02:05:04.414Z,1010.46
2017-11-17T02:06:04.389Z,1010.47
2017-11-17T02:07:04.394Z,1010.45
2017-11-17T02:08:04.344Z,1010.46
2017-11-17T02:09:04.406Z,1010.47
2017-11-17T02:10:04.286Z,1010.45
2017-11-17T02:11:04.318Z,1010.44
2017-11-17T02:12:04.243Z,1010.42
2017-11-17T02:13:04.328Z,1010.46
2017-11-17T02:14:04.188Z,1010.50
2017-11-17T02:15:04.238Z,1010.50
2017-11-17T02:16:04.139Z,1010.54
2017-11-17T02:17:04.149Z,1010.57
2017-11-17T02:18:04.087Z,1010.54
2017-11-17T02:19:04.160Z,1010.55
2017-11-17T02:20:04.042Z,1010.57
2017-11-17T02:21:04.068Z,1010.57
2017-11-17T02:22:03.989Z,1010.60
2017-11-17T02:23:03.981Z,1010.59
2017-11-17T02:24:03.938Z,1010.56
2017-11-17T02:25:03.989Z,1010.57
2017-11-17T02:26:03.881Z,1010.61
2017-11-17T02:27:03.900Z,1010.62
2017-11-17T02:28:03.831Z,1010.67
2017-11-17T02:29:03.911Z,1010.64
2017-11-17T02:30:03.797Z,1010.63
2017-11-17T02:31:03.820Z,1010.62
2017-11-17T02:32:03.734Z,1010.64
2017-11-17T02:33:03.733Z,1010.68
2017-11-17T02:34:03.688Z,1010.66
2017-11-17T02:35:03.743Z,1010.73
2017-11-17T02:36:03.631Z,1010.70
2017-11-17T02:37:03.656Z,1010.72
2017-11-17T02:38:03.583Z,1010.72
2017-11-17T02:39:03.667Z,1010.70
2017-11-17T02:40:03.534Z,1010.72
2017-11-17T02:41:03.576Z,1010.72
2017-11-17T02:42:03.490Z,1010.69
2017-11-17T02:43:03.466Z,1010.69
2017-11-17T02:44:03.432Z,1010.72
2017-11-17T02:45:03.501Z,1010.68
2017-11-17T02:46:03.384Z,1010.69
2017-11-17T02:47:03.409Z,1010.69
2017-11-17T02:48:03.338Z,1010.70
2017-11-17T02:49:03.303Z,1010.71
2017-11-17T02:50:03.329Z,1010.69
2017-11-17T02:51:03.252Z,1010.72
2017-11-17T02:52:03.342Z,1010.73
2017-11-17T02:53:03.201Z,1010.71
2017-11-17T02:54:03.183Z,1010.72
2017-11-17T02:55:03.147Z,1010.73
2017-11-17T02:56:03.157Z,1010.74
2017-11-17T02:57:03.100Z,1010.74
2017-11-17T02:58:03.168Z,1010.75
2017-11-17T02:59:03.048Z,1010.71
2017-11-17T03:00:03.078Z,1010.73
2017-11-17T03:01:03.004Z,1010.71
2017-11-17T03:02:03.089Z,1010.76
2017-11-17T03:03:02.954Z,1010.72
2017-11-17T03:04:03.006Z,1010.75
2017-11-17T03:05:02.906Z,1010.74
2017-11-17T03:06:02.876Z,1010.74
2017-11-17T03:07:02.920Z,1010.74
2017-11-17T03:08:02.825Z,1010.74
2017-11-17T03:09:02.831Z,1010.81
2017-11-17T03:10:02.772Z,1010.80
2017-11-17T03:11:02.840Z,1010.82
2017-11-17T03:12:02.740Z,1010.83
2017-11-17T03:13:02.703Z,1010.80
2017-11-17T03:14:02.754Z,1010.81
2017-11-17T03:15:02.665Z,1010.82
2017-11-17T03:16:02.664Z,1010.84
2017-11-17T03:17:02.604Z,1010.84
2017-11-17T03:18:02.677Z,1010.85
2017-11-17T03:19:02.552Z,1010.86
2017-11-17T03:20:02.587Z,1010.89
2017-11-17T03:21:02.504Z,1010.87
2017-11-17T03:22:02.495Z,1010.87
2017-11-17T03:23:02.453Z,1010.87
2017-11-17T03:24:02.427Z,1010.90
2017-11-17T03:25:02.518Z,1010.93
2017-11-17T03:26:02.373Z,1010.95
2017-11-17T03:27:02.433Z,1010.95
2017-11-17T03:28:02.328Z,1011.05
2017-11-17T03:29:02.303Z,1011.00
2017-11-17T03:30:02.344Z,1010.97
2017-11-17T03:31:02.258Z,1011.02
2017-11-17T03:32:02.265Z,1011.07
2017-11-17T03:33:02.195Z,1011.09
2017-11-17T03:34:02.260Z,1011.11
2017-11-17T03:35:02.167Z,1011.09
2017-11-17T03:36:02.128Z,1011.12
2017-11-17T03:37:02.179Z,1011.13
2017-11-17T03:38:02.075Z,1011.13
2017-11-17T03:39:02.087Z,1011.09
2017-11-17T03:40:02.029Z,1011.17
2017-11-17T03:41:02.001Z,1011.15
2017-11-17T03:42:02.010Z,1011.14
2017-11-17T03:43:01.944Z,1011.13
2017-11-17T03:44:02.016Z,1011.14
2017-11-17T03:45:01.903Z,1011.11
2017-11-17T03:46:01.951Z,1011.16
2017-11-17T03:47:01.846Z,1011.18
2017-11-17T03:48:01.939Z,1011.17
2017-11-17T03:49:01.795Z,1011.16
2017-11-17T03:50:01.851Z,1011.19
2017-11-17T03:51:01.750Z,1011.22
2017-11-17T03:52:01.729Z,1011.21
2017-11-17T03:53:01.697Z,1011.21
2017-11-17T03:54:01.778Z,1011.17
2017-11-17T03:55:01.651Z,1011.19
2017-11-17T03:56:01.682Z,1011.21
2017-11-17T03:57:01.594Z,1011.23
2017-11-17T03:58:01.575Z,1011.23
2017-11-17T03:59:01.552Z,1011.21
2017-11-17T04:00:01.605Z,1011.21
2017-11-17T04:01:01.495Z,1011.24
2017-11-17T04:02:01.513Z,1011.30
2017-11-17T04:03:01.452Z,1011.23
2017-11-17T04:04:01.423Z,1011.24
2017-11-17T04:05:01.395Z,1011.26
2017-11-17T04:06:01.435Z,1011.26
2017-11-17T04:07:01.345Z,1011.29
2017-11-17T04:08:01.348Z,1011.22
2017-11-17T04:09:01.298Z,1011.28
2017-11-17T04:10:01.357Z,1011.23
2017-11-17T04:11:01.244Z,1011.30
2017-11-17T04:12:01.265Z,1011.31
2017-11-17T04:13:01.201Z,1011.31
2017-11-17T04:14:01.277Z,1011.31
2017-11-17T04:15:01.150Z,1011.28
2017-11-17T04:16:01.191Z,1011.31
2017-11-17T04:17:01.098Z,1011.32
2017-11-17T04:18:01.097Z,1011.30
2017-11-17T04:19:01.049Z,1011.34
2017-11-17T04:20:01.111Z,1011.40
2017-11-17T04:21:00.997Z,1011.36
2017-11-17T04:22:00.975Z,1011.44
2017-11-17T04:23:01.024Z,1011.43
2017-11-17T04:24:00.918Z,1011.46
2017-11-17T04:25:00.940Z,1011.39
2017-11-17T04:26:00.872Z,1011.35
2017-11-17T04:27:00.837Z,1011.38
2017-11-17T04:28:00.812Z,1011.37
2017-11-17T04:29:00.863Z,1011.40
2017-11-17T04:30:00.769Z,1011.39
2017-11-17T04:31:00.769Z,1011.42
2017-11-17T04:32:00.712Z,1011.39
2017-11-17T04:33:00.689Z,1011.39
2017-11-17T04:34:00.666Z,1011.39
2017-11-17T04:35:00.687Z,1011.39
2017-11-17T04:36:00.618Z,1011.40
2017-11-17T04:37:00.701Z,1011.42
2017-11-17T04:38:00.561Z,1011.43
2017-11-17T04:39:00.540Z,1011.50
2017-11-17T04:40:00.619Z,1011.44
2017-11-17T04:41:00.482Z,1011.46
2017-11-17T04:42:00.527Z,1011.48
2017-11-17T04:43:00.439Z,1011.49
2017-11-17T04:44:00.439Z,1011.47
2017-11-17T04:45:00.384Z,1011.47
2017-11-17T04:46:00.452Z,1011.48
2017-11-17T04:47:00.329Z,1011.47
2017-11-17T04:48:00.361Z,1011.42
2017-11-17T04:49:00.291Z,1011.45
2017-11-17T04:50:00.260Z,1011.45
2017-11-17T04:51:00.290Z,1011.44
2017-11-17T04:52:00.287Z,1011.42
2017-11-17T04:53:00.261Z,1011.48
2017-11-17T04:54:00.199Z,1011.48
2017-11-17T04:55:00.128Z,1011.44
2017-11-17T04:56:00.109Z,1011.41
2017-11-17T04:57:00.080Z,1011.42
2017-11-17T04:58:00.117Z,1011.44
2017-11-17T04:59:00.026Z,1011.43
2017-11-17T05:00:00.030Z,1011.46
2017-11-17T05:00:59.975Z,1011.43
2017-11-17T05:01:59.954Z,1011.45
2017-11-17T05:03:00.053Z,1011.46
2017-11-17T05:03:59.905Z,1011.50
2017-11-17T05:04:59.955Z,1011.47
2017-11-17T05:05:59.854Z,1011.48
2017-11-17T05:06:59.822Z,1011.50
2017-11-17T05:07:59.868Z,1011.53
2017-11-17T05:08:59.778Z,1011.57
2017-11-17T05:09:59.777Z,1011.56
2017-11-17T05:10:59.727Z,1011.54
2017-11-17T05:11:59.699Z,1011.57
2017-11-17T05:12:59.677Z,1011.57
2017-11-17T05:13:59.700Z,1011.54
2017-11-17T05:14:59.631Z,1011.55
2017-11-17T05:15:59.617Z,1011.59
2017-11-17T05:16:59.621Z,1011.57
2017-11-17T05:17:59.542Z,1011.60
2017-11-17T05:18:59.640Z,1011.63
2017-11-17T05:19:59.494Z,1011.65
2017-11-17T05:20:59.540Z,1011.62
2017-11-17T05:21:59.441Z,1011.66
2017-11-17T05:22:59.453Z,1011.66
2017-11-17T05:23:59.389Z,1011.63
2017-11-17T05:24:59.463Z,1011.63
2017-11-17T05:25:59.337Z,1011.61
2017-11-17T05:26:59.324Z,1011.68
2017-11-17T05:27:59.286Z,1011.64
2017-11-17T05:28:59.284Z,1011.66
2017-11-17T05:29:59.237Z,1011.65
2017-11-17T05:30:59.300Z,1011.69
2017-11-17T05:31:59.183Z,1011.70
2017-11-17T05:32:59.232Z,1011.68
2017-11-17T05:33:59.213Z,1011.69
2017-11-17T05:34:59.115Z,1011.69
2017-11-17T05:35:59.121Z,1011.73
2017-11-17T05:36:59.060Z,1011.74
2017-11-17T05:37:59.131Z,1011.81
2017-11-17T05:38:59.009Z,1011.79
2017-11-17T05:39:59.040Z,1011.82
2017-11-17T05:40:58.959Z,1011.76
2017-11-17T05:41:58.955Z,1011.80
2017-11-17T05:42:58.953Z,1011.81
2017-11-17T05:43:58.876Z,1011.81
2017-11-17T05:44:58.972Z,1011.78
2017-11-17T05:45:58.832Z,1011.81
2017-11-17T05:46:58.878Z,1011.82
2017-11-17T05:47:58.782Z,1011.85
2017-11-17T05:48:58.791Z,1011.84
2017-11-17T05:49:58.734Z,1011.84
2017-11-17T05:50:58.803Z,1011.84
2017-11-17T05:51:58.676Z,1011.87
2017-11-17T05:52:58.716Z,1011.87
2017-11-17T05:53:58.622Z,1011.87
2017-11-17T05:54:58.632Z,1011.85
2017-11-17T05:55:58.575Z,1011.86
2017-11-17T05:56:58.565Z,1011.90
2017-11-17T05:57:58.526Z,1011.90
2017-11-17T05:58:58.500Z,1011.93
2017-11-17T05:59:58.470Z,1011.95
2017-11-17T06:00:58.461Z,1011.98
2017-11-17T06:01:58.426Z,1011.96
2017-11-17T06:02:58.402Z,1011.98
2017-11-17T06:03:58.372Z,1012.00
2017-11-17T06:04:58.352Z,1012.02
2017-11-17T06:05:58.325Z,1012.00
2017-11-17T06:06:58.297Z,1012.02
2017-11-17T06:07:58.268Z,1012.05
2017-11-17T06:08:58.265Z,1012.07
2017-11-17T06:09:58.220Z,1012.12
2017-11-17T06:10:58.193Z,1012.12
2017-11-17T06:11:58.172Z,1012.13
2017-11-17T06:12:58.145Z,1012.13
2017-11-17T06:13:58.120Z,1012.13
2017-11-17T06:14:58.096Z,1012.15
2017-11-17T06:15:58.078Z,1012.15
2017-11-17T06:16:58.041Z,1012.21
2017-11-17T06:17:58.018Z,1012.18
2017-11-17T06:18:57.988Z,1012.22
2017-11-17T06:19:57.963Z,1012.23
2017-11-17T06:20:57.941Z,1012.26
2017-11-17T06:21:57.936Z,1012.24
2017-11-17T06:22:57.889Z,1012.26
2017-11-17T06:23:57.864Z,1012.24
2017-11-17T06:24:57.841Z,1012.27
2017-11-17T06:25:57.807Z,1012.24
2017-11-17T06:26:57.798Z,1012.24
2017-11-17T06:27:57.762Z,1012.30
2017-11-17T06:28:57.736Z,1012.29
2017-11-17T06:29:57.710Z,1012.28
2017-11-17T06:30:57.696Z,1012.31
2017-11-17T06:31:57.662Z,1012.35
2017-11-17T06:32:57.639Z,1012.37
2017-11-17T06:33:57.605Z,1012.41
2017-11-17T06:34:57.593Z,1012.43
2017-11-17T06:35:57.563Z,1012.39
2017-11-17T06:36:57.553Z,1012.37
2017-11-17T06:37:57.519Z,1012.39
2017-11-17T06:38:57.476Z,1012.43
2017-11-17T06:39:57.471Z,1012.41
2017-11-17T06:40:57.427Z,1012.40
2017-11-17T06:41:57.408Z,1012.41
2017-11-17T06:42:57.376Z,1012.45
2017-11-17T06:43:57.364Z,1012.46
2017-11-17T06:44:57.329Z,1012.46
2017-11-17T06:45:57.315Z,1012.45
2017-11-17T06:46:57.273Z,1012.49
2017-11-17T06:47:57.262Z,1012.45
2017-11-17T06:48:57.224Z,1012.46
2017-11-17T06:49:57.227Z,1012.46
2017-11-17T06:50:57.177Z,1012.51
2017-11-17T06:51:57.157Z,1012.52
2017-11-17T06:52:57.130Z,1012.54
2017-11-17T06:53:57.100Z,1012.57
2017-11-17T06:54:57.087Z,1012.58
2017-11-17T06:55:57.046Z,1012.54
2017-11-17T06:56:57.038Z,1012.58
2017-11-17T06:57:56.996Z,1012.60
2017-11-17T06:58:56.981Z,1012.59
2017-11-17T06:59:56.977Z,1012.64
2017-11-17T07:00:56.938Z,1012.62
2017-11-17T07:01:56.908Z,1012.64
2017-11-17T07:02:56.880Z,1012.64
2017-11-17T07:03:56.858Z,1012.67
2017-11-17T07:04:56.828Z,1012.65
2017-11-17T07:05:56.797Z,1012.71
2017-11-17T07:06:56.782Z,1012.70
2017-11-17T07:07:56.755Z,1012.75
2017-11-17T07:08:56.724Z,1012.75
2017-11-17T07:09:56.692Z,1012.78
2017-11-17T07:10:56.676Z,1012.79
2017-11-17T07:11:56.645Z,1012.78
2017-11-17T07:12:56.620Z,1012.83
2017-11-17T07:13:56.594Z,1012.82
2017-11-17T07:14:56.572Z,1012.84
2017-11-17T07:15:56.541Z,1012.88
2017-11-17T07:16:56.516Z,1012.88
2017-11-17T07:17:56.492Z,1012.89
2017-11-17T07:18:56.464Z,1012.93
2017-11-17T07:19:56.444Z,1012.92
2017-11-17T07:20:56.412Z,1012.95
2017-11-17T07:21:56.399Z,1012.94
2017-11-17T07:22:56.362Z,1012.97
2017-11-17T07:23:56.341Z,1012.99
2017-11-17T07:24:56.312Z,1012.95
2017-11-17T07:25:56.297Z,1012.99
2017-11-17T07:26:56.259Z,1012.97
2017-11-17T07:27:56.231Z,1013.01
2017-11-17T07:28:56.212Z,1013.01
2017-11-17T07:29:56.194Z,1013.02
2017-11-17T07:30:56.160Z,1013.06
2017-11-17T07:31:56.143Z,1013.08
2017-11-17T07:32:56.110Z,1013.04
2017-11-17T07:33:56.096Z,1013.11
2017-11-17T07:34:56.052Z,1013.11
2017-11-17T07:35:56.040Z,1013.11
2017-11-17T07:36:56.000Z,1013.17
2017-11-17T07:37:55.987Z,1013.15
2017-11-17T07:38:55.950Z,1013.21
2017-11-17T07:39:55.939Z,1013.19
2017-11-17T07:40:55.898Z,1013.16
2017-11-17T07:41:55.889Z,1013.16
2017-11-17T07:42:55.851Z,1013.16
2017-11-17T07:43:55.833Z,1013.22
2017-11-17T07:44:55.795Z,1013.12
2017-11-17T07:45:55.792Z,1013.19
2017-11-17T07:46:55.748Z,1013.21
2017-11-17T07:47:55.736Z,1013.17
2017-11-17T07:48:55.701Z,1013.19
2017-11-17T07:49:55.678Z,1013.17
2017-11-17T07:50:55.648Z,1013.20
2017-11-17T07:51:55.620Z,1013.24
2017-11-17T07:52:55.617Z,1013.30
2017-11-17T07:53:55.568Z,1013.24
2017-11-17T07:54:55.553Z,1013.25
2017-11-17T07:55:55.514Z,1013.30
2017-11-17T07:56:55.505Z,1013.29
2017-11-17T07:57:55.472Z,1013.31
2017-11-17T07:58:55.449Z,1013.32
2017-11-17T07:59:55.420Z,1013.32
2017-11-17T08:00:55.396Z,1013.33
2017-11-17T08:01:55.371Z,1013.34
2017-11-17T08:02:55.343Z,1013.36
2017-11-17T08:03:55.330Z,1013.36
2017-11-17T08:04:55.331Z,1013.36
2017-11-17T08:05:55.266Z,1013.37
2017-11-17T08:06:55.241Z,1013.37
2017-11-17T08:07:55.224Z,1013.37
2017-11-17T08:08:55.188Z,1013.41
2017-11-17T08:09:55.170Z,1013.40
2017-11-17T08:10:55.149Z,1013.44
2017-11-17T08:11:55.118Z,1013.44
2017-11-17T08:12:55.088Z,1013.43
2017-11-17T08:13:55.063Z,1013.46
2017-11-17T08:14:55.038Z,1013.42
2017-11-17T08:15:55.014Z,1013.42
2017-11-17T08:16:54.992Z,1013.44
2017-11-17T08:17:54.957Z,1013.41
2017-11-17T08:18:54.950Z,1013.38
2017-11-17T08:19:54.905Z,1013.43
2017-11-17T08:20:54.887Z,1013.45
2017-11-17T08:21:54.864Z,1013.43
2017-11-17T08:22:54.837Z,1013.41
2017-11-17T08:23:54.815Z,1013.40
2017-11-17T08:24:54.790Z,1013.47
2017-11-17T08:25:54.760Z,1013.47
2017-11-17T08:26:54.738Z,1013.45
2017-11-17T08:27:54.756Z,1013.50
2017-11-17T08:28:54.690Z,1013.52
2017-11-17T08:29:54.654Z,1013.51
2017-11-17T08:30:54.632Z,1013.48
2017-11-17T08:31:54.599Z,1013.48
2017-11-17T08:32:54.581Z,1013.45
2017-11-17T08:33:54.560Z,1013.48
2017-11-17T08:34:54.520Z,1013.43
2017-11-17T08:35:54.504Z,1013.45
2017-11-17T08:36:54.478Z,1013.43
2017-11-17T08:37:54.455Z,1013.48
2017-11-17T08:38:54.419Z,1013.45
2017-11-17T08:39:54.402Z,1013.43
2017-11-17T08:40:54.374Z,1013.46
2017-11-17T08:41:54.367Z,1013.44
2017-11-17T08:42:54.323Z,1013.40
2017-11-17T08:43:54.302Z,1013.45
2017-11-17T08:44:54.273Z,1013.44
2017-11-17T08:45:54.247Z,1013.46
2017-11-17T08:46:54.221Z,1013.43
2017-11-17T08:47:54.202Z,1013.48
2017-11-17T08:48:54.168Z,1013.48
2017-11-17T08:49:54.144Z,1013.49
2017-11-17T08:50:54.125Z,1013.50
2017-11-17T08:51:54.091Z,1013.48
2017-11-17T08:52:54.067Z,1013.51
2017-11-17T08:53:54.040Z,1013.51
2017-11-17T08:54:54.019Z,1013.50
2017-11-17T08:55:53.999Z,1013.50
2017-11-17T08:56:53.960Z,1013.47
2017-11-17T08:57:53.945Z,1013.47
2017-11-17T08:58:53.909Z,1013.45
2017-11-17T08:59:53.890Z,1013.50
2017-11-17T09:00:53.857Z,1013.49
2017-11-17T09:01:53.842Z,1013.47
2017-11-17T09:02:53.809Z,1013.48
2017-11-17T09:03:53.798Z,1013.48
2017-11-17T09:04:53.755Z,1013.47
2017-11-17T09:05:53.736Z,1013.48
2017-11-17T09:06:53.710Z,1013.46
2017-11-17T09:07:53.680Z,1013.50
2017-11-17T09:08:53.665Z,1013.50
2017-11-17T09:09:53.633Z,1013.50
2017-11-17T09:10:53.608Z,1013.50
2017-11-17T09:11:53.595Z,1013.50
2017-11-17T09:12:53.559Z,1013.50
2017-11-17T09:13:53.541Z,1013.52
2017-11-17T09:14:53.507Z,1013.54
2017-11-17T09:15:53.479Z,1013.52
2017-11-17T09:16:53.457Z,1013.52
2017-11-17T09:17:53.434Z,1013.50
2017-11-17T09:18:53.405Z,1013.48
2017-11-17T09:19:53.380Z,1013.50
2017-11-17T09:20:53.357Z,1013.47
2017-11-17T09:21:53.329Z,1013.48
2017-11-17T09:22:53.297Z,1013.51
2017-11-17T09:23:53.269Z,1013.52
2017-11-17T09:24:53.253Z,1013.53
2017-11-17T09:25:53.222Z,1013.54
2017-11-17T09:26:53.197Z,1013.52
2017-11-17T09:27:53.166Z,1013.57
2017-11-17T09:28:53.152Z,1013.61
2017-11-17T09:29:53.120Z,1013.58
2017-11-17T09:30:53.086Z,1013.60
2017-11-17T09:31:53.073Z,1013.59
2017-11-17T09:32:53.037Z,1013.56
2017-11-17T09:33:53.016Z,1013.62
2017-11-17T09:34:52.988Z,1013.61
2017-11-17T09:35:52.975Z,1013.57
2017-11-17T09:36:52.942Z,1013.57
2017-11-17T09:37:52.918Z,1013.61
2017-11-17T09:38:52.890Z,1013.58
2017-11-17T09:39:52.869Z,1013.58
2017-11-17T09:40:52.833Z,1013.59
2017-11-17T09:41:52.817Z,1013.63
2017-11-17T09:42:52.787Z,1013.64
2017-11-17T09:43:52.772Z,1013.64
2017-11-17T09:44:52.738Z,1013.63
2017-11-17T09:45:52.721Z,1013.63
2017-11-17T09:46:52.680Z,1013.61
2017-11-17T09:47:52.659Z,1013.62
2017-11-17T09:48:52.637Z,1013.59
2017-11-17T09:49:52.605Z,1013.59
2017-11-17T09:50:52.595Z,1013.59
2017-11-17T09:51:52.565Z,1013.61
2017-11-17T09:52:52.540Z,1013.66
2017-11-17T09:53:52.524Z,1013.60
2017-11-17T09:54:52.493Z,1013.62
2017-11-17T09:55:52.463Z,1013.61
2017-11-17T09:56:52.434Z,1013.60
2017-11-17T09:57:52.407Z,1013.60
2017-11-17T09:58:52.387Z,1013.59
2017-11-17T09:59:52.353Z,1013.55
2017-11-17T10:00:52.335Z,1013.58
2017-11-17T10:01:52.305Z,1013.59
2017-11-17T10:02:52.284Z,1013.59
2017-11-17T10:03:52.253Z,1013.61
2017-11-17T10:04:52.234Z,1013.59
2017-11-17T10:05:52.209Z,1013.56
2017-11-17T10:06:53.174Z,1013.59
2017-11-17T10:07:52.146Z,1013.59
2017-11-17T10:08:52.128Z,1013.59
2017-11-17T10:09:52.096Z,1013.55
2017-11-17T10:10:52.068Z,1013.54
2017-11-17T10:11:52.058Z,1013.49
2017-11-17T10:12:52.032Z,1013.55
2017-11-17T10:13:52.005Z,1013.51
2017-11-17T10:14:51.965Z,1013.53
2017-11-17T10:15:51.952Z,1013.51
2017-11-17T10:16:51.933Z,1013.55
2017-11-17T10:17:51.901Z,1013.53
2017-11-17T10:18:51.876Z,1013.55
2017-11-17T10:19:51.845Z,1013.51
2017-11-17T10:20:51.830Z,1013.53
2017-11-17T10:21:51.797Z,1013.60
2017-11-17T10:22:51.778Z,1013.58
2017-11-17T10:23:51.740Z,1013.57
2017-11-17T10:24:51.725Z,1013.60
2017-11-17T10:25:51.696Z,1013.57
2017-11-17T10:26:51.673Z,1013.54
2017-11-17T10:27:51.645Z,1013.53
2017-11-17T10:28:51.617Z,1013.55
2017-11-17T10:29:51.594Z,1013.56
2017-11-17T10:30:51.568Z,1013.51
2017-11-17T10:31:51.550Z,1013.54
2017-11-17T10:32:51.513Z,1013.54
2017-11-17T10:33:51.492Z,1013.53
2017-11-17T10:34:51.468Z,1013.50
2017-11-17T10:35:51.448Z,1013.51
2017-11-17T10:36:51.444Z,1013.47
2017-11-17T10:37:51.396Z,1013.45
2017-11-17T10:38:51.360Z,1013.46
2017-11-17T10:39:51.339Z,1013.46
2017-11-17T10:40:51.317Z,1013.51
2017-11-17T10:41:51.299Z,1013.48
2017-11-17T10:42:51.267Z,1013.46
2017-11-17T10:43:51.244Z,1013.47
2017-11-17T10:44:51.221Z,1013.45
2017-11-17T10:45:51.199Z,1013.49
2017-11-17T10:46:51.162Z,1013.51
2017-11-17T10:47:51.132Z,1013.44
2017-11-17T10:48:51.122Z,1013.46
2017-11-17T10:49:51.082Z,1013.47
2017-11-17T10:50:51.066Z,1013.49
2017-11-17T10:51:51.041Z,1013.48
2017-11-17T10:52:51.006Z,1013.48
2017-11-17T10:53:50.991Z,1013.47
2017-11-17T10:54:50.962Z,1013.47
2017-11-17T10:55:50.943Z,1013.47
2017-11-17T10:56:50.910Z,1013.49
2017-11-17T10:57:50.881Z,1013.45
2017-11-17T10:58:50.866Z,1013.48
2017-11-17T10:59:50.828Z,1013.46
2017-11-17T11:00:50.806Z,1013.46
2017-11-17T11:01:50.785Z,1013.47
2017-11-17T11:02:50.756Z,1013.47
2017-11-17T11:03:50.738Z,1013.47
2017-11-17T11:04:50.709Z,1013.48
2017-11-17T11:05:50.676Z,1013.47
2017-11-17T11:06:50.654Z,1013.49
2017-11-17T11:07:50.641Z,1013.49
2017-11-17T11:08:50.608Z,1013.50
2017-11-17T11:09:50.580Z,1013.45
2017-11-17T11:10:50.557Z,1013.51
2017-11-17T11:11:50.535Z,1013.48
2017-11-17T11:12:50.508Z,1013.47
2017-11-17T11:13:50.480Z,1013.47
2017-11-17T11:14:50.459Z,1013.48
2017-11-17T11:15:50.433Z,1013.50
2017-11-17T11:16:50.411Z,1013.48
2017-11-17T11:17:50.378Z,1013.45
2017-11-17T11:18:50.357Z,1013.44
2017-11-17T11:19:50.322Z,1013.43
2017-11-17T11:20:50.314Z,1013.47
2017-11-17T11:21:50.279Z,1013.46
2017-11-17T11:22:50.266Z,1013.42
2017-11-17T11:23:50.226Z,1013.43
2017-11-17T11:24:50.207Z,1013.45
2017-11-17T11:25:50.176Z,1013.43
2017-11-17T11:26:50.143Z,1013.44
2017-11-17T11:27:50.133Z,1013.44
2017-11-17T11:28:50.096Z,1013.42
2017-11-17T11:29:50.086Z,1013.43
2017-11-17T11:30:50.045Z,1013.42
2017-11-17T11:31:50.024Z,1013.42
2017-11-17T11:32:50.013Z,1013.39
2017-11-17T11:33:49.975Z,1013.38
2017-11-17T11:34:49.948Z,1013.36
2017-11-17T11:35:49.931Z,1013.34
2017-11-17T11:36:49.903Z,1013.34
2017-11-17T11:37:49.868Z,1013.34
2017-11-17T11:38:49.854Z,1013.33
2017-11-17T11:39:49.825Z,1013.33
2017-11-17T11:40:49.800Z,1013.27
2017-11-17T11:41:49.770Z,1013.30
2017-11-17T11:42:49.752Z,1013.33
2017-11-17T11:43:49.729Z,1013.30
2017-11-17T11:44:49.702Z,1013.31
2017-11-17T11:45:49.675Z,1013.30
2017-11-17T11:46:49.663Z,1013.25
2017-11-17T11:47:49.631Z,1013.31
2017-11-17T11:48:49.607Z,1013.32
2017-11-17T11:49:49.580Z,1013.27
2017-11-17T11:50:49.545Z,1013.29
2017-11-17T11:51:49.529Z,1013.25
2017-11-17T11:52:49.522Z,1013.28
2017-11-17T11:53:49.473Z,1013.29
2017-11-17T11:54:49.453Z,1013.24
2017-11-17T11:55:49.424Z,1013.25
2017-11-17T11:56:49.409Z,1013.20
2017-11-17T11:57:49.369Z,1013.22
2017-11-17T11:58:49.357Z,1013.22
2017-11-17T11:59:49.321Z,1013.23
2017-11-17T12:00:49.316Z,1013.20
2017-11-17T12:01:49.275Z,1013.27
2017-11-17T12:02:49.261Z,1013.27
2017-11-17T12:03:49.226Z,1013.24
2017-11-17T12:04:49.209Z,1013.24